sensor_id;sensor_type;location;lat;lon;timestamp;pressure;altitude;pressure_sealevel;temperature;humidity
3780;BME280;1905;52.482;9.802;2023-12-20T02:06:46;100673.66;;;7.53;100.00
3780;BME280;1905;52.482;9.802;2023-12-20T02:09:15;100676.19;;;7.56;100.00
3780;BME280;1905;52.482;9.802;2023-12-20T02:11:43;100668.41;;;7.53;100.00
3780;BME280;1905;52.482;9.802;2023-12-20T02:14:11;100665.78;;;7.53;100.00
3780;BME280;1905;52.482;9.802;2023-12-20T02:16:38;100651.03;;;7.49;100.00
3780;BME280;1905;52.482;9.802;2023-12-20T02:19:11;100652.88;;;7.47;100.00
3780;BME280;1905;52.482;9.802;2023-12-20T02:21:42;100644.97;;;7.47;100.00
3780;BME280;1905;52.482;9.802;2023-12-20T02:24:09;100643.25;;;7.46;100.00
3780;BME280;1905;52.482;9.802;2023-12-20T02:26:37;100638.03;;;7.45;100.00
3780;BME280;1905;52.482;9.802;2023-12-20T02:29:05;100627.66;;;7.42;100.00
3780;BME280;1905;52.482;9.802;2023-12-20T02:31:32;100632.94;;;7.40;100.00
3780;BME280;1905;52.482;9.802;2023-12-20T02:34:00;100635.56;;;7.40;100.00
3780;BME280;1905;52.482;9.802;2023-12-20T02:36:28;100634.75;;;7.38;99.84
3780;BME280;1905;52.482;9.802;2023-12-20T02:38:57;100632.22;;;7.35;100.00
3780;BME280;1905;52.482;9.802;2023-12-20T02:41:25;100634.94;;;7.32;100.00
3780;BME280;1905;52.482;9.802;2023-12-20T02:43:52;100640.19;;;7.32;100.00
3780;BME280;1905;52.482;9.802;2023-12-20T02:46:20;100637.81;;;7.25;100.00
3780;BME280;1905;52.482;9.802;2023-12-20T02:48:48;100633.34;;;7.28;100.00
3780;BME280;1905;52.482;9.802;2023-12-20T02:51:16;100631.59;;;7.27;100.00
3780;BME280;1905;52.482;9.802;2023-12-20T02:53:43;100634.25;;;7.26;100.00
3780;BME280;1905;52.482;9.802;2023-12-20T02:56:13;100631.75;;;7.23;100.00
3780;BME280;1905;52.482;9.802;2023-12-20T02:58:40;100629.16;;;7.21;100.00
3780;BME280;1905;52.482;9.802;2023-12-20T03:01:08;100621.34;;;7.19;100.00
3780;BME280;1905;52.482;9.802;2023-12-20T03:03:36;100631.88;;;7.18;100.00
3780;BME280;1905;52.482;9.802;2023-12-20T03:06:04;100625.00;;;7.14;100.00
3780;BME280;1905;52.482;9.802;2023-12-20T03:08:32;100618.91;;;7.13;100.00
3780;BME280;1905;52.482;9.802;2023-12-20T03:10:59;100611.16;;;7.09;100.00
3780;BME280;1905;52.482;9.802;2023-12-20T03:13:28;100607.63;;;7.10;100.00
3780;BME280;1905;52.482;9.802;2023-12-20T03:15:56;100601.56;;;7.08;100.00
3780;BME280;1905;52.482;9.802;2023-12-20T03:18:24;100597.19;;;7.07;100.00
3780;BME280;1905;52.482;9.802;2023-12-20T03:20:51;100595.63;;;7.01;100.00
3780;BME280;1905;52.482;9.802;2023-12-20T03:23:19;100586.84;;;7.02;100.00
3780;BME280;1905;52.482;9.802;2023-12-20T03:25:47;100592.09;;;7.02;100.00
3780;BME280;1905;52.482;9.802;2023-12-20T03:28:15;100587.81;;;7.00;100.00
3780;BME280;1905;52.482;9.802;2023-12-20T03:30:44;100583.44;;;6.99;100.00
3780;BME280;1905;52.482;9.802;2023-12-20T03:33:12;100578.28;;;6.96;100.00
3780;BME280;1905;52.482;9.802;2023-12-20T03:35:39;100577.63;;;6.89;100.00
3780;BME280;1905;52.482;9.802;2023-12-20T03:38:07;100575.78;;;6.93;100.00
3780;BME280;1905;52.482;9.802;2023-12-20T03:40:35;100569.78;;;6.88;100.00
3780;BME280;1905;52.482;9.802;2023-12-20T03:43:03;100562.78;;;6.88;100.00
3780;BME280;1905;52.482;9.802;2023-12-20T03:45:31;100561.97;;;6.86;100.00
3780;BME280;1905;52.482;9.802;2023-12-20T03:48:00;100565.50;;;6.85;100.00
3780;BME280;1905;52.482;9.802;2023-12-20T03:50:28;100562.94;;;6.84;100.00
3780;BME280;1905;52.482;9.802;2023-12-20T03:52:56;100564.75;;;6.82;100.00
3780;BME280;1905;52.482;9.802;2023-12-20T03:55:24;100564.84;;;6.79;100.00
3780;BME280;1905;52.482;9.802;2023-12-20T03:57:51;100580.59;;;6.79;100.00
3780;BME280;1905;52.482;9.802;2023-12-20T04:00:19;100571.03;;;6.76;100.00
3780;BME280;1905;52.482;9.802;2023-12-20T04:02:47;100566.75;;;6.74;100.00
3780;BME280;1905;52.482;9.802;2023-12-20T04:05:16;100563.28;;;6.72;100.00
3780;BME280;1905;52.482;9.802;2023-12-20T04:07:44;100559.00;;;6.69;100.00
3780;BME280;1905;52.482;9.802;2023-12-20T04:10:12;100552.88;;;6.69;100.00
3780;BME280;1905;52.482;9.802;2023-12-20T04:12:40;100566.00;;;6.69;100.00
3780;BME280;1905;52.482;9.802;2023-12-20T04:15:08;100567.81;;;6.67;100.00
3780;BME280;1905;52.482;9.802;2023-12-20T04:17:38;100552.13;;;6.65;99.98
3780;BME280;1905;52.482;9.802;2023-12-20T04:20:07;100561.75;;;6.65;100.00
3780;BME280;1905;52.482;9.802;2023-12-20T04:22:36;100554.78;;;6.64;100.00
3780;BME280;1905;52.482;9.802;2023-12-20T04:25:05;100550.66;;;6.55;100.00
3780;BME280;1905;52.482;9.802;2023-12-20T04:27:32;100547.06;;;6.59;100.00
3780;BME280;1905;52.482;9.802;2023-12-20T04:30:00;100540.88;;;6.62;100.00
3780;BME280;1905;52.482;9.802;2023-12-20T04:32:28;100533.13;;;6.57;100.00
3780;BME280;1905;52.482;9.802;2023-12-20T04:34:56;100542.69;;;6.59;100.00
3780;BME280;1905;52.482;9.802;2023-12-20T04:37:23;100540.88;;;6.62;100.00
3780;BME280;1905;52.482;9.802;2023-12-20T04:39:53;100539.13;;;6.60;100.00
3780;BME280;1905;52.482;9.802;2023-12-20T04:42:21;100537.44;;;6.59;100.00
3780;BME280;1905;52.482;9.802;2023-12-20T04:44:49;100537.34;;;6.63;100.00
3780;BME280;1905;52.482;9.802;2023-12-20T04:47:17;100534.75;;;6.61;100.00
3780;BME280;1905;52.482;9.802;2023-12-20T04:49:44;100540.88;;;6.62;100.00
3780;BME280;1905;52.482;9.802;2023-12-20T04:52:13;100530.38;;;6.62;100.00
3780;BME280;1905;52.482;9.802;2023-12-20T04:54:42;100552.22;;;6.62;100.00
3780;BME280;1905;52.482;9.802;2023-12-20T04:57:12;100532.09;;;6.63;100.00
3780;BME280;1905;52.482;9.802;2023-12-20T04:59:40;100539.13;;;6.60;100.00
3780;BME280;1905;52.482;9.802;2023-12-20T05:02:08;100541.72;;;6.62;100.00
3780;BME280;1905;52.482;9.802;2023-12-20T05:04:36;100545.22;;;6.63;100.00
3780;BME280;1905;52.482;9.802;2023-12-20T05:07:03;100537.34;;;6.63;100.00
3780;BME280;1905;52.482;9.802;2023-12-20T05:09:32;100533.88;;;6.60;100.00
3780;BME280;1905;52.482;9.802;2023-12-20T05:12:00;100532.00;;;6.66;99.97
3780;BME280;1905;52.482;9.802;2023-12-20T05:14:29;100537.25;;;6.66;100.00
3780;BME280;1905;52.482;9.802;2023-12-20T05:16:57;100537.25;;;6.66;100.00
3780;BME280;1905;52.482;9.802;2023-12-20T05:19:25;100535.44;;;6.68;100.00
3780;BME280;1905;52.482;9.802;2023-12-20T05:21:53;100527.72;;;6.63;100.00
3780;BME280;1905;52.482;9.802;2023-12-20T05:24:20;100532.00;;;6.66;100.00
3780;BME280;1905;52.482;9.802;2023-12-20T05:26:48;100537.19;;;6.67;100.00
3780;BME280;1905;52.482;9.802;2023-12-20T05:29:19;100532.19;;;6.59;100.00
3780;BME280;1905;52.482;9.802;2023-12-20T05:31:48;100526.75;;;6.66;100.00
3780;BME280;1905;52.482;9.802;2023-12-20T05:34:16;100521.38;;;6.69;100.00
3780;BME280;1905;52.482;9.802;2023-12-20T05:36:44;100528.47;;;6.67;100.00
3780;BME280;1905;52.482;9.802;2023-12-20T05:39:12;100516.25;;;6.66;100.00
3780;BME280;1905;52.482;9.802;2023-12-20T05:41:39;100519.69;;;6.68;100.00
3780;BME280;1905;52.482;9.802;2023-12-20T05:44:07;100526.56;;;6.72;99.93
3780;BME280;1905;52.482;9.802;2023-12-20T05:46:35;100527.41;;;6.72;100.00
3780;BME280;1905;52.482;9.802;2023-12-20T05:49:04;100526.63;;;6.69;100.00
3780;BME280;1905;52.482;9.802;2023-12-20T05:51:32;100530.97;;;6.71;100.00
3780;BME280;1905;52.482;9.802;2023-12-20T05:53:59;100530.97;;;6.71;100.00
3780;BME280;1905;52.482;9.802;2023-12-20T05:56:27;100516.88;;;6.74;100.00
3780;BME280;1905;52.482;9.802;2023-12-20T05:58:55;100527.41;;;6.72;100.00
3780;BME280;1905;52.482;9.802;2023-12-20T06:01:23;100528.28;;;6.73;100.00
3780;BME280;1905;52.482;9.802;2023-12-20T06:03:51;100529.31;;;6.67;100.00
3780;BME280;1905;52.482;9.802;2023-12-20T06:06:20;100531.88;;;6.69;100.00
3780;BME280;1905;52.482;9.802;2023-12-20T06:08:48;100524.75;;;6.74;100.00
3780;BME280;1905;52.482;9.802;2023-12-20T06:11:16;100528.28;;;6.73;100.00
3780;BME280;1905;52.482;9.802;2023-12-20T06:13:44;100538.69;;;6.76;100.00
3780;BME280;1905;52.482;9.802;2023-12-20T06:16:11;100538.63;;;6.77;100.00
3780;BME280;1905;52.482;9.802;2023-12-20T06:18:40;100535.09;;;6.78;100.00
3780;BME280;1905;52.482;9.802;2023-12-20T06:21:08;100529.00;;;6.78;100.00
3780;BME280;1905;52.482;9.802;2023-12-20T06:23:40;100522.94;;;6.76;99.87
3780;BME280;1905;52.482;9.802;2023-12-20T06:26:08;100516.84;;;6.75;100.00
3780;BME280;1905;52.482;9.802;2023-12-20T06:28:36;100512.53;;;6.73;100.00
3780;BME280;1905;52.482;9.802;2023-12-20T06:31:08;100512.34;;;6.79;100.00
3780;BME280;1905;52.482;9.802;2023-12-20T06:33:36;100517.63;;;6.77;100.00
3780;BME280;1905;52.482;9.802;2023-12-20T06:36:04;100512.53;;;6.73;100.00
3780;BME280;1905;52.482;9.802;2023-12-20T06:38:32;100517.69;;;6.76;99.69
3780;BME280;1905;52.482;9.802;2023-12-20T06:41:04;100522.00;;;6.78;100.00
3780;BME280;1905;52.482;9.802;2023-12-20T06:43:32;100509.66;;;6.80;99.59
3780;BME280;1905;52.482;9.802;2023-12-20T06:46:15;100500.94;;;6.80;100.00
3780;BME280;1905;52.482;9.802;2023-12-20T06:48:44;100508.81;;;6.80;100.00
3780;BME280;1905;52.482;9.802;2023-12-20T06:51:13;100521.03;;;6.81;100.00
3780;BME280;1905;52.482;9.802;2023-12-20T06:53:42;100512.25;;;6.82;99.59
3780;BME280;1905;52.482;9.802;2023-12-20T06:56:11;100501.84;;;6.79;100.00
3780;BME280;1905;52.482;9.802;2023-12-20T06:58:44;100508.00;;;6.78;99.66
3780;BME280;1905;52.482;9.802;2023-12-20T07:01:12;100509.63;;;6.82;100.00
3780;BME280;1905;52.482;9.802;2023-12-20T07:03:40;100507.09;;;6.79;100.00
3780;BME280;1905;52.482;9.802;2023-12-20T07:06:08;100513.97;;;6.83;99.91
3780;BME280;1905;52.482;9.802;2023-12-20T07:08:36;100504.41;;;6.80;99.49
3780;BME280;1905;52.482;9.802;2023-12-20T07:11:04;100486.13;;;6.79;99.98
3780;BME280;1905;52.482;9.802;2023-12-20T07:13:33;100495.56;;;6.84;99.56
3780;BME280;1905;52.482;9.802;2023-12-20T07:16:01;100484.28;;;6.81;99.38
3780;BME280;1905;52.482;9.802;2023-12-20T07:18:29;100480.97;;;6.76;99.35
3780;BME280;1905;52.482;9.802;2023-12-20T07:20:57;100487.81;;;6.80;99.28
3780;BME280;1905;52.482;9.802;2023-12-20T07:23:25;100501.03;;;6.77;99.75
3780;BME280;1905;52.482;9.802;2023-12-20T07:25:53;100501.75;;;6.82;99.57
3780;BME280;1905;52.482;9.802;2023-12-20T07:28:21;100500.91;;;6.81;99.71
3780;BME280;1905;52.482;9.802;2023-12-20T07:30:50;100491.34;;;6.79;99.00
3780;BME280;1905;52.482;9.802;2023-12-20T07:33:18;100496.63;;;6.77;99.54
3780;BME280;1905;52.482;9.802;2023-12-20T07:35:46;100493.16;;;6.77;99.96
3780;BME280;1905;52.482;9.802;2023-12-20T07:38:14;100486.97;;;6.79;99.61
3780;BME280;1905;52.482;9.802;2023-12-20T07:40:42;100486.22;;;6.74;100.00
3780;BME280;1905;52.482;9.802;2023-12-20T07:43:10;100487.00;;;6.78;100.00
3780;BME280;1905;52.482;9.802;2023-12-20T07:45:38;100482.56;;;6.80;100.00
3780;BME280;1905;52.482;9.802;2023-12-20T07:48:07;100476.47;;;6.79;100.00
3780;BME280;1905;52.482;9.802;2023-12-20T07:50:35;100486.91;;;6.81;99.38
3780;BME280;1905;52.482;9.802;2023-12-20T07:53:03;100486.91;;;6.81;100.00
3780;BME280;1905;52.482;9.802;2023-12-20T07:55:31;100476.50;;;6.78;99.66
3780;BME280;1905;52.482;9.802;2023-12-20T07:57:59;100467.84;;;6.76;100.00
3780;BME280;1905;52.482;9.802;2023-12-20T08:00:27;100478.34;;;6.76;100.00
3780;BME280;1905;52.482;9.802;2023-12-20T08:02:55;100473.97;;;6.75;99.57
3780;BME280;1905;52.482;9.802;2023-12-20T08:05:24;100491.44;;;6.76;99.85
3780;BME280;1905;52.482;9.802;2023-12-20T08:07:52;100482.66;;;6.77;100.00
3780;BME280;1905;52.482;9.802;2023-12-20T08:10:20;100485.34;;;6.75;100.00
3780;BME280;1905;52.482;9.802;2023-12-20T08:12:48;100477.31;;;6.80;99.89
3780;BME280;1905;52.482;9.802;2023-12-20T08:15:16;100483.63;;;6.74;100.00
3780;BME280;1905;52.482;9.802;2023-12-20T08:17:43;100486.97;;;6.79;99.83
3780;BME280;1905;52.482;9.802;2023-12-20T08:20:12;100474.78;;;6.77;99.56
3780;BME280;1905;52.482;9.802;2023-12-20T08:22:46;100479.28;;;6.73;99.93
3780;BME280;1905;52.482;9.802;2023-12-20T08:25:14;100482.66;;;6.77;99.56
3780;BME280;1905;52.482;9.802;2023-12-20T08:27:42;100473.88;;;6.78;99.97
3780;BME280;1905;52.482;9.802;2023-12-20T08:30:11;100480.00;;;6.78;99.75
3780;BME280;1905;52.482;9.802;2023-12-20T08:32:39;100478.97;;;6.82;100.00
3780;BME280;1905;52.482;9.802;2023-12-20T08:35:07;100461.38;;;6.86;99.88
3780;BME280;1905;52.482;9.802;2023-12-20T08:37:35;100457.06;;;6.85;99.58
3780;BME280;1905;52.482;9.802;2023-12-20T08:40:06;100463.19;;;6.84;100.00
3780;BME280;1905;52.482;9.802;2023-12-20T08:42:34;100451.91;;;6.82;100.00
3780;BME280;1905;52.482;9.802;2023-12-20T08:45:02;100452.59;;;6.87;99.95
3780;BME280;1905;52.482;9.802;2023-12-20T08:47:30;100457.75;;;6.90;99.73
3780;BME280;1905;52.482;9.802;2023-12-20T08:49:58;100449.03;;;6.89;100.00
3780;BME280;1905;52.482;9.802;2023-12-20T08:52:28;100449.78;;;6.93;99.70
3780;BME280;1905;52.482;9.802;2023-12-20T08:54:56;100441.94;;;6.91;100.00
3780;BME280;1905;52.482;9.802;2023-12-20T08:57:25;100457.53;;;6.96;99.40
3780;BME280;1905;52.482;9.802;2023-12-20T08:59:53;100438.38;;;6.94;100.00
3780;BME280;1905;52.482;9.802;2023-12-20T09:02:21;100444.47;;;6.94;99.84
3780;BME280;1905;52.482;9.802;2023-12-20T09:04:50;100435.66;;;6.97;99.61
3780;BME280;1905;52.482;9.802;2023-12-20T09:07:22;100433.13;;;6.94;99.82
3780;BME280;1905;52.482;9.802;2023-12-20T09:09:51;100425.25;;;6.94;100.00
3780;BME280;1905;52.482;9.802;2023-12-20T09:12:19;100438.16;;;7.00;100.00
3780;BME280;1905;52.482;9.802;2023-12-20T09:14:49;100423.22;;;7.02;99.04
3780;BME280;1905;52.482;9.802;2023-12-20T09:17:17;100413.56;;;7.02;99.54
3780;BME280;1905;52.482;9.802;2023-12-20T09:19:47;100402.91;;;7.07;99.65
3780;BME280;1905;52.482;9.802;2023-12-20T09:22:14;100401.25;;;7.04;99.74
3780;BME280;1905;52.482;9.802;2023-12-20T09:24:42;100402.81;;;7.10;99.88
3780;BME280;1905;52.482;9.802;2023-12-20T09:27:16;100399.41;;;7.08;99.04
3780;BME280;1905;52.482;9.802;2023-12-20T09:29:44;100414.25;;;7.09;99.82
3780;BME280;1905;52.482;9.802;2023-12-20T09:32:13;100402.09;;;7.06;99.35
3780;BME280;1905;52.482;9.802;2023-12-20T09:34:41;100407.19;;;7.09;99.51
3780;BME280;1905;52.482;9.802;2023-12-20T09:37:09;100408.91;;;7.12;99.23
3780;BME280;1905;52.482;9.802;2023-12-20T09:39:37;100403.47;;;7.16;98.94
3780;BME280;1905;52.482;9.802;2023-12-20T09:42:06;100402.63;;;7.16;99.54
3780;BME280;1905;52.482;9.802;2023-12-20T09:44:34;100395.63;;;7.15;99.44
3780;BME280;1905;52.482;9.802;2023-12-20T09:47:03;100393.84;;;7.17;98.60
3780;BME280;1905;52.482;9.802;2023-12-20T09:49:33;100393.84;;;7.17;98.91
3780;BME280;1905;52.482;9.802;2023-12-20T09:52:03;100394.66;;;7.17;98.96
3780;BME280;1905;52.482;9.802;2023-12-20T09:54:32;100391.91;;;7.22;99.13
3780;BME280;1905;52.482;9.802;2023-12-20T09:57:00;100392.69;;;7.24;98.98
3780;BME280;1905;52.482;9.802;2023-12-20T09:59:28;100395.22;;;7.27;99.38
3780;BME280;1905;52.482;9.802;2023-12-20T10:01:55;100387.34;;;7.27;98.85
3780;BME280;1905;52.482;9.802;2023-12-20T10:04:24;100380.34;;;7.28;98.72
3780;BME280;1905;52.482;9.802;2023-12-20T10:07:01;100387.25;;;7.30;98.55
3780;BME280;1905;52.482;9.802;2023-12-20T10:09:32;100367.09;;;7.31;98.90
3780;BME280;1905;52.482;9.802;2023-12-20T10:12:01;100389.06;;;7.28;99.17
3780;BME280;1905;52.482;9.802;2023-12-20T10:14:29;100396.72;;;7.34;99.48
3780;BME280;1905;52.482;9.802;2023-12-20T10:17:02;100375.69;;;7.34;99.60
3780;BME280;1905;52.482;9.802;2023-12-20T10:19:30;100368.66;;;7.36;99.01
3780;BME280;1905;52.482;9.802;2023-12-20T10:22:00;100366.72;;;7.41;98.40
3780;BME280;1905;52.482;9.802;2023-12-20T10:24:29;100383.34;;;7.42;98.64
3780;BME280;1905;52.482;9.802;2023-12-20T10:27:03;100368.41;;;7.42;98.66
3780;BME280;1905;52.482;9.802;2023-12-20T10:29:32;100366.59;;;7.44;98.37
3780;BME280;1905;52.482;9.802;2023-12-20T10:32:23;100361.28;;;7.46;99.35
3780;BME280;1905;52.482;9.802;2023-12-20T10:34:51;100356.00;;;7.47;99.51
3780;BME280;1905;52.482;9.802;2023-12-20T10:37:23;100349.75;;;7.50;98.39
3780;BME280;1905;52.482;9.802;2023-12-20T10:39:52;100363.63;;;7.53;98.89
3780;BME280;1905;52.482;9.802;2023-12-20T10:42:24;100353.09;;;7.53;99.15
3780;BME280;1905;52.482;9.802;2023-12-20T10:44:53;100362.81;;;7.51;99.11
3780;BME280;1905;52.482;9.802;2023-12-20T10:47:22;100362.81;;;7.51;99.22
3780;BME280;1905;52.482;9.802;2023-12-20T10:49:52;100351.34;;;7.54;98.28
3780;BME280;1905;52.482;9.802;2023-12-20T10:52:23;100341.69;;;7.54;98.89
3780;BME280;1905;52.482;9.802;2023-12-20T10:54:52;100345.13;;;7.56;98.58
3780;BME280;1905;52.482;9.802;2023-12-20T10:57:21;100346.75;;;7.60;98.43
3780;BME280;1905;52.482;9.802;2023-12-20T10:59:53;100333.72;;;7.57;98.50
3780;BME280;1905;52.482;9.802;2023-12-20T11:02:21;100335.38;;;7.60;98.50
3780;BME280;1905;52.482;9.802;2023-12-20T11:04:53;100317.72;;;7.63;98.74
3780;BME280;1905;52.482;9.802;2023-12-20T11:07:30;100323.78;;;7.65;98.75
3780;BME280;1905;52.482;9.802;2023-12-20T11:10:03;100313.38;;;7.62;98.96
3780;BME280;1905;52.482;9.802;2023-12-20T11:12:43;100320.34;;;7.63;99.36
3780;BME280;1905;52.482;9.802;2023-12-20T11:15:13;100316.78;;;7.64;98.37
3780;BME280;1905;52.482;9.802;2023-12-20T11:17:44;100314.28;;;7.61;99.03
3780;BME280;1905;52.482;9.802;2023-12-20T11:20:18;100317.66;;;7.65;99.92
3780;BME280;1905;52.482;9.802;2023-12-20T11:22:54;100338.84;;;7.60;99.41
3780;BME280;1905;52.482;9.802;2023-12-20T11:25:23;100355.41;;;7.62;99.43
3780;BME280;1905;52.482;9.802;2023-12-20T11:28:07;100334.50;;;7.59;99.96
3780;BME280;1905;52.482;9.802;2023-12-20T11:30:43;100324.97;;;7.57;99.89
3780;BME280;1905;52.482;9.802;2023-12-20T11:33:14;100346.84;;;7.57;100.00
3780;BME280;1905;52.482;9.802;2023-12-20T11:35:42;100338.28;;;7.52;100.00
3780;BME280;1905;52.482;9.802;2023-12-20T11:38:13;100331.22;;;7.53;100.00
3780;BME280;1905;52.482;9.802;2023-12-20T11:40:42;100333.84;;;7.53;100.00
3780;BME280;1905;52.482;9.802;2023-12-20T11:43:11;100342.56;;;7.55;100.00
3780;BME280;1905;52.482;9.802;2023-12-20T11:45:49;100341.59;;;7.57;100.00
3780;BME280;1905;52.482;9.802;2023-12-20T11:48:17;100343.44;;;7.55;99.60
3780;BME280;1905;52.482;9.802;2023-12-20T11:50:46;100339.06;;;7.54;99.55
3780;BME280;1905;52.482;9.802;2023-12-20T11:53:15;100350.38;;;7.56;99.55
3780;BME280;1905;52.482;9.802;2023-12-20T11:55:47;100338.28;;;7.52;99.87
3780;BME280;1905;52.482;9.802;2023-12-20T11:58:15;100331.41;;;7.48;99.64
3780;BME280;1905;52.482;9.802;2023-12-20T12:00:43;100340.22;;;7.47;100.00
3780;BME280;1905;52.482;9.802;2023-12-20T12:03:14;100337.59;;;7.47;99.49
3780;BME280;1905;52.482;9.802;2023-12-20T12:05:42;100337.53;;;7.49;99.51
3780;BME280;1905;52.482;9.802;2023-12-20T12:08:10;100340.22;;;7.47;99.37
3780;BME280;1905;52.482;9.802;2023-12-20T12:10:41;100335.81;;;7.48;99.58
3780;BME280;1905;52.482;9.802;2023-12-20T12:13:09;100341.00;;;7.49;99.32
3780;BME280;1905;52.482;9.802;2023-12-20T12:15:37;100341.81;;;7.51;99.05
3780;BME280;1905;52.482;9.802;2023-12-20T12:18:05;100338.31;;;7.51;99.22
3780;BME280;1905;52.482;9.802;2023-12-20T12:20:33;100342.03;;;7.45;99.51
3780;BME280;1905;52.482;9.802;2023-12-20T12:23:05;100343.75;;;7.46;98.79
3780;BME280;1905;52.482;9.802;2023-12-20T12:25:35;100348.25;;;7.43;99.79
3780;BME280;1905;52.482;9.802;2023-12-20T12:28:10;100336.88;;;7.42;99.29
3780;BME280;1905;52.482;9.802;2023-12-20T12:30:38;100335.22;;;7.40;98.86
3780;BME280;1905;52.482;9.802;2023-12-20T12:33:19;100333.53;;;7.39;98.61
3780;BME280;1905;52.482;9.802;2023-12-20T12:35:48;100325.69;;;7.37;98.46
3780;BME280;1905;52.482;9.802;2023-12-20T12:38:15;100328.31;;;7.37;99.18
3780;BME280;1905;52.482;9.802;2023-12-20T12:40:43;100326.72;;;7.33;98.14
3780;BME280;1905;52.482;9.802;2023-12-20T12:43:12;100329.38;;;7.32;98.52
3780;BME280;1905;52.482;9.802;2023-12-20T12:45:40;100333.78;;;7.31;99.14
3780;BME280;1905;52.482;9.802;2023-12-20T12:48:08;100335.50;;;7.32;99.44
3780;BME280;1905;52.482;9.802;2023-12-20T12:50:36;100333.00;;;7.29;98.71
3780;BME280;1905;52.482;9.802;2023-12-20T12:53:03;100338.25;;;7.29;98.52
3780;BME280;1905;52.482;9.802;2023-12-20T12:55:35;100337.44;;;7.27;98.75
3780;BME280;1905;52.482;9.802;2023-12-20T12:58:03;100332.13;;;7.29;99.17
3780;BME280;1905;52.482;9.802;2023-12-20T13:00:32;100328.69;;;7.27;98.26
3780;BME280;1905;52.482;9.802;2023-12-20T13:03:00;100329.59;;;7.26;98.39
3780;BME280;1905;52.482;9.802;2023-12-20T13:05:28;100328.78;;;7.25;98.90
3780;BME280;1905;52.482;9.802;2023-12-20T13:07:59;100335.81;;;7.23;98.31
3780;BME280;1905;52.482;9.802;2023-12-20T13:10:27;100329.75;;;7.23;98.25
3780;BME280;1905;52.482;9.802;2023-12-20T13:12:54;100324.59;;;7.19;98.45
3780;BME280;1905;52.482;9.802;2023-12-20T13:15:22;100326.41;;;7.17;98.16
3780;BME280;1905;52.482;9.802;2023-12-20T13:17:51;100339.50;;;7.19;98.18
3780;BME280;1905;52.482;9.802;2023-12-20T13:20:19;100340.47;;;7.16;97.60
3780;BME280;1905;52.482;9.802;2023-12-20T13:22:48;100331.81;;;7.13;97.92
3780;BME280;1905;52.482;9.802;2023-12-20T13:25:16;100337.03;;;7.14;98.43
3780;BME280;1905;52.482;9.802;2023-12-20T13:27:44;100346.78;;;7.11;98.36
3780;BME280;1905;52.482;9.802;2023-12-20T13:30:13;100338.00;;;7.12;97.97
3780;BME280;1905;52.482;9.802;2023-12-20T13:32:41;100348.59;;;7.09;97.50
3780;BME280;1905;52.482;9.802;2023-12-20T13:35:10;100336.38;;;7.08;97.49
3780;BME280;1905;52.482;9.802;2023-12-20T13:37:38;100336.47;;;7.05;97.74
3780;BME280;1905;52.482;9.802;2023-12-20T13:40:07;100345.16;;;7.07;97.42
3780;BME280;1905;52.482;9.802;2023-12-20T13:42:35;100345.16;;;7.07;97.68
3780;BME280;1905;52.482;9.802;2023-12-20T13:45:04;100344.31;;;7.06;97.55
3780;BME280;1905;52.482;9.802;2023-12-20T13:47:33;100338.22;;;7.06;97.60
3780;BME280;1905;52.482;9.802;2023-12-20T13:50:00;100346.97;;;7.05;97.60
3780;BME280;1905;52.482;9.802;2023-12-20T13:52:30;100334.88;;;7.01;97.36
3780;BME280;1905;52.482;9.802;2023-12-20T13:54:59;100347.28;;;6.96;97.11
3780;BME280;1905;52.482;9.802;2023-12-20T13:57:27;100334.06;;;6.99;97.66
3780;BME280;1905;52.482;9.802;2023-12-20T14:00:16;100343.66;;;7.00;98.30
3780;BME280;1905;52.482;9.802;2023-12-20T14:02:44;100340.25;;;6.98;97.52
3780;BME280;1905;52.482;9.802;2023-12-20T14:05:12;100341.94;;;6.99;97.50
3780;BME280;1905;52.482;9.802;2023-12-20T14:07:42;100337.56;;;6.99;98.00
3780;BME280;1905;52.482;9.802;2023-12-20T14:10:12;100335.88;;;6.97;96.89
3780;BME280;1905;52.482;9.802;2023-12-20T14:12:40;100336.69;;;6.99;97.64
3780;BME280;1905;52.482;9.802;2023-12-20T14:15:09;100338.41;;;7.00;98.25
3780;BME280;1905;52.482;9.802;2023-12-20T14:17:38;100343.66;;;7.00;96.87
3780;BME280;1905;52.482;9.802;2023-12-20T14:20:07;100341.22;;;6.95;97.22
3780;BME280;1905;52.482;9.802;2023-12-20T14:22:35;100334.22;;;6.94;97.99
3780;BME280;1905;52.482;9.802;2023-12-20T14:25:07;100347.19;;;6.99;97.55
3780;BME280;1905;52.482;9.802;2023-12-20T14:27:37;100354.38;;;6.94;96.16
3780;BME280;1905;52.482;9.802;2023-12-20T14:30:07;100350.84;;;6.95;97.33
3780;BME280;1905;52.482;9.802;2023-12-20T14:32:35;100352.53;;;6.96;97.37
3780;BME280;1905;52.482;9.802;2023-12-20T14:35:05;100346.50;;;6.94;97.33
3780;BME280;1905;52.482;9.802;2023-12-20T14:37:35;100343.88;;;6.94;97.02
3780;BME280;1905;52.482;9.802;2023-12-20T14:40:08;100348.34;;;6.90;97.80
3780;BME280;1905;52.482;9.802;2023-12-20T14:42:41;100357.94;;;6.93;97.57
3780;BME280;1905;52.482;9.802;2023-12-20T14:45:09;100359.50;;;6.97;97.16
3780;BME280;1905;52.482;9.802;2023-12-20T14:47:37;100349.13;;;6.94;97.14
3780;BME280;1905;52.482;9.802;2023-12-20T14:50:06;100351.75;;;6.94;97.82
3780;BME280;1905;52.482;9.802;2023-12-20T14:52:34;100347.53;;;6.90;97.30
3780;BME280;1905;52.482;9.802;2023-12-20T14:55:04;100345.69;;;6.92;97.11
3780;BME280;1905;52.482;9.802;2023-12-20T14:57:33;100351.03;;;6.89;97.11
3780;BME280;1905;52.482;9.802;2023-12-20T15:00:01;100347.53;;;6.90;97.28
3780;BME280;1905;52.482;9.802;2023-12-20T15:02:29;100343.09;;;6.90;97.29
3780;BME280;1905;52.482;9.802;2023-12-20T15:04:58;100351.16;;;6.86;96.63
3780;BME280;1905;52.482;9.802;2023-12-20T15:07:25;100345.78;;;6.89;96.26
3780;BME280;1905;52.482;9.802;2023-12-20T15:09:53;100345.78;;;6.89;96.54
3780;BME280;1905;52.482;9.802;2023-12-20T15:12:21;100342.28;;;6.90;96.24
3780;BME280;1905;52.482;9.802;2023-12-20T15:14:51;100352.78;;;6.90;96.39
3780;BME280;1905;52.482;9.802;2023-12-20T15:17:19;100354.56;;;6.88;97.53
3780;BME280;1905;52.482;9.802;2023-12-20T15:19:47;100355.41;;;6.90;96.16
3780;BME280;1905;52.482;9.802;2023-12-20T15:22:15;100360.66;;;6.90;96.84
3780;BME280;1905;52.482;9.802;2023-12-20T15:24:43;100364.88;;;6.94;97.00
3780;BME280;1905;52.482;9.802;2023-12-20T15:27:13;100365.78;;;6.93;96.53
3780;BME280;1905;52.482;9.802;2023-12-20T15:29:41;100366.78;;;6.89;96.08
3780;BME280;1905;52.482;9.802;2023-12-20T15:32:10;100370.97;;;6.94;96.47